Time;durP1;ratioP1;P1;durP2;ratioP2;P2;SDS_P1;SDS_P2;PMS_P1;PMS_P2;Temp;Humidity;BMP_temperature;BMP_pressure;BME280_temperature;BME280_humidity;BME280_pressure;Samples;Min_cycle;Max_cycle;Signal;HPM_P1;HPM_P2
2024/02/23 00:00:46;;;;;;;0.73;0.60;;;;;;;;;;5043766;28;20041;-64
2024/02/23 00:03:12;;;;;;;0.73;0.50;;;;;;;;;;5043764;28;20451;-64
2024/02/23 00:05:38;;;;;;;0.40;0.40;;;;;;;;;;5047891;28;20049;-65
2024/02/23 00:08:04;;;;;;;0.60;0.60;;;;;;;;;;5041181;28;20504;-64
2024/02/23 00:10:30;;;;;;;0.30;0.30;;;;;;;;;;5041173;28;20040;-64
2024/02/23 00:12:57;;;;;;;0.40;0.40;;;;;;;;;;5038721;28;21410;-63
2024/02/23 00:15:25;;;;;;;0.90;0.60;;;;;;;;;;5044370;28;20037;-64
2024/02/23 00:17:51;;;;;;;0.75;0.40;;;;;;;;;;5020539;28;20513;-64
2024/02/23 00:20:17;;;;;;;0.50;0.50;;;;;;;;;;5047007;28;20025;-63
2024/02/23 00:22:43;;;;;;;0.68;0.55;;;;;;;;;;5046724;28;20037;-64
2024/02/23 00:25:09;;;;;;;0.40;0.40;;;;;;;;;;5049422;28;20045;-64
2024/02/23 00:27:36;;;;;;;0.70;0.50;;;;;;;;;;5049808;28;20044;-64
2024/02/23 00:30:03;;;;;;;3.22;0.60;;;;;;;;;;5045307;28;20044;-64
2024/02/23 00:32:29;;;;;;;3.58;0.40;;;;;;;;;;5044586;28;20040;-64
2024/02/23 00:34:57;;;;;;;1.70;0.60;;;;;;;;;;5048920;28;20041;-65
2024/02/23 00:37:23;;;;;;;0.50;0.50;;;;;;;;;;5047200;28;20045;-63
2024/02/23 00:39:49;;;;;;;0.95;0.32;;;;;;;;;;5045068;28;20050;-64
2024/02/23 00:42:15;;;;;;;3.95;0.50;;;;;;;;;;5048932;28;20059;-63
2024/02/23 00:44:41;;;;;;;0.50;0.40;;;;;;;;;;5045038;28;20041;-64
2024/02/23 00:47:07;;;;;;;1.83;0.52;;;;;;;;;;5050595;28;20405;-64
2024/02/23 00:49:33;;;;;;;5.25;0.52;;;;;;;;;;5047775;28;20619;-63
2024/02/23 00:52:00;;;;;;;3.35;0.65;;;;;;;;;;5048639;28;20052;-64
2024/02/23 00:54:26;;;;;;;1.30;0.57;;;;;;;;;;5046777;28;20037;-64
2024/02/23 00:56:52;;;;;;;0.68;0.40;;;;;;;;;;5044566;28;20104;-62
2024/02/23 00:59:18;;;;;;;1.15;0.40;;;;;;;;;;5041190;28;20045;-62
2024/02/23 01:01:45;;;;;;;2.30;0.55;;;;;;;;;;5046175;28;20060;-62
2024/02/23 01:04:11;;;;;;;1.27;0.50;;;;;;;;;;5050984;28;20041;-63
2024/02/23 01:06:37;;;;;;;4.25;0.60;;;;;;;;;;5050356;28;20041;-63
2024/02/23 01:09:04;;;;;;;4.38;0.82;;;;;;;;;;5048465;28;20629;-63
2024/02/23 01:11:30;;;;;;;3.45;0.60;;;;;;;;;;5043558;28;20040;-62
2024/02/23 01:13:57;;;;;;;0.63;0.57;;;;;;;;;;5047332;28;20440;-62
2024/02/23 01:16:23;;;;;;;0.88;0.52;;;;;;;;;;5044998;28;20044;-62
2024/02/23 01:18:49;;;;;;;0.50;0.50;;;;;;;;;;5046764;28;20041;-62
2024/02/23 01:21:15;;;;;;;2.67;0.80;;;;;;;;;;5047081;28;20041;-62
2024/02/23 01:23:41;;;;;;;3.78;0.82;;;;;;;;;;5050515;28;20037;-62
2024/02/23 01:26:07;;;;;;;1.45;0.68;;;;;;;;;;5047592;28;20040;-62
2024/02/23 01:28:33;;;;;;;4.97;0.70;;;;;;;;;;5053879;28;20049;-62
2024/02/23 01:30:59;;;;;;;2.47;0.65;;;;;;;;;;5044503;28;20048;-62
2024/02/23 01:33:26;;;;;;;4.03;0.68;;;;;;;;;;5049611;28;20041;-62
2024/02/23 01:35:52;;;;;;;2.10;0.55;;;;;;;;;;5045699;28;20041;-62
2024/02/23 01:38:22;;;;;;;3.97;0.82;;;;;;;;;;5045315;28;20044;-62
2024/02/23 01:40:48;;;;;;;;;;;;;;;;;;5048928;28;20036;-62
2024/02/23 01:43:14;;;;;;;2.58;0.60;;;;;;;;;;5055149;28;19913;-62
2024/02/23 01:45:40;;;;;;;1.70;0.60;;;;;;;;;;5041951;28;20528;-62
2024/02/23 01:48:06;;;;;;;2.20;0.70;;;;;;;;;;5049326;28;20033;-62
2024/02/23 01:50:32;;;;;;;2.85;0.60;;;;;;;;;;5053254;28;20044;-62
2024/02/23 01:53:01;;;;;;;7.43;0.68;;;;;;;;;;5051414;28;20064;-62
2024/02/23 01:55:27;;;;;;;2.35;0.93;;;;;;;;;;5040402;28;20033;-62
2024/02/23 01:57:54;;;;;;;7.47;0.63;;;;;;;;;;5044359;28;20397;-62
2024/02/23 02:00:20;;;;;;;0.60;0.60;;;;;;;;;;5047213;28;20764;-62
2024/02/23 02:02:54;;;;;;;3.92;0.60;;;;;;;;;;5048214;28;20510;-63
2024/02/23 02:05:21;;;;;;;2.58;0.68;;;;;;;;;;5041666;28;20044;-63
2024/02/23 02:07:53;;;;;;;2.95;0.90;;;;;;;;;;5047454;28;20041;-63
2024/02/23 02:10:20;;;;;;;1.30;0.40;;;;;;;;;;5047418;28;20041;-63
2024/02/23 02:12:46;;;;;;;2.05;0.60;;;;;;;;;;5046254;28;20048;-63
2024/02/23 02:15:12;;;;;;;2.58;0.60;;;;;;;;;;5049299;28;20037;-63
2024/02/23 02:17:39;;;;;;;1.15;0.60;;;;;;;;;;5051000;28;20049;-63
2024/02/23 02:20:06;;;;;;;2.10;0.60;;;;;;;;;;5050088;28;20035;-63
2024/02/23 02:22:33;;;;;;;1.08;0.50;;;;;;;;;;5050144;28;20412;-63
2024/02/23 02:24:59;;;;;;;0.70;0.60;;;;;;;;;;5047771;28;20053;-63
2024/02/23 02:27:25;;;;;;;0.60;0.60;;;;;;;;;;5046959;28;20052;-63
2024/02/23 02:29:51;;;;;;;2.05;0.68;;;;;;;;;;5049637;28;20048;-63
2024/02/23 02:32:18;;;;;;;3.45;0.43;;;;;;;;;;5044357;28;20044;-63
2024/02/23 02:34:44;;;;;;;1.95;0.50;;;;;;;;;;5080357;22;21024;-64
2024/02/23 02:37:10;;;;;;;1.23;0.40;;;;;;;;;;5065510;28;20496;-64
2024/02/23 02:39:36;;;;;;;0.85;0.38;;;;;;;;;;5067543;28;20044;-65
2024/02/23 02:42:02;;;;;;;0.47;0.47;;;;;;;;;;5064287;28;20048;-65
2024/02/23 02:44:30;;;;;;;0.50;0.50;;;;;;;;;;5062005;28;20036;-66
2024/02/23 02:46:57;;;;;;;1.23;0.60;;;;;;;;;;5084067;28;20044;-66
2024/02/23 02:49:24;;;;;;;0.60;0.60;;;;;;;;;;5068898;28;20035;-66
2024/02/23 02:51:50;;;;;;;0.68;0.60;;;;;;;;;;5086269;28;20044;-65
2024/02/23 02:54:16;;;;;;;0.88;0.60;;;;;;;;;;5089011;28;20062;-65
2024/02/23 02:56:43;;;;;;;2.15;0.50;;;;;;;;;;5084048;28;20412;-66
2024/02/23 02:59:10;;;;;;;3.17;0.60;;;;;;;;;;5086259;28;20048;-66
2024/02/23 03:01:36;;;;;;;4.78;0.70;;;;;;;;;;5085033;28;20055;-66
2024/02/23 03:04:02;;;;;;;0.68;0.50;;;;;;;;;;5084755;28;20066;-66
2024/02/23 03:06:28;;;;;;;0.88;0.50;;;;;;;;;;5082878;28;20039;-66
2024/02/23 03:08:54;;;;;;;0.40;0.40;;;;;;;;;;5085514;28;20511;-65
2024/02/23 03:11:20;;;;;;;2.00;0.50;;;;;;;;;;5085307;28;20039;-66
2024/02/23 03:13:46;;;;;;;0.47;0.47;;;;;;;;;;5086558;28;20048;-66
2024/02/23 03:16:17;;;;;;;1.23;0.55;;;;;;;;;;5086549;28;20040;-65
2024/02/23 03:18:43;;;;;;;2.78;0.90;;;;;;;;;;5084702;28;20416;-66
2024/02/23 03:21:10;;;;;;;0.95;0.50;;;;;;;;;;5086241;28;20493;-65
2024/02/23 03:23:36;;;;;;;0.57;0.57;;;;;;;;;;5088479;28;20055;-65
2024/02/23 03:26:02;;;;;;;3.25;0.55;;;;;;;;;;5086083;28;20035;-65
2024/02/23 03:28:28;;;;;;;3.22;0.82;;;;;;;;;;5085238;28;20036;-65
2024/02/23 03:30:54;;;;;;;0.70;0.52;;;;;;;;;;5084655;28;20048;-65
2024/02/23 03:33:20;;;;;;;0.68;0.60;;;;;;;;;;5088266;28;20407;-66
2024/02/23 03:35:47;;;;;;;2.85;0.50;;;;;;;;;;5085286;28;20052;-66
2024/02/23 03:38:13;;;;;;;1.60;0.40;;;;;;;;;;5085764;28;20468;-65
2024/02/23 03:40:39;;;;;;;3.40;0.68;;;;;;;;;;5085522;28;20381;-66
2024/02/23 03:43:05;;;;;;;0.55;0.45;;;;;;;;;;5085775;28;20122;-66
2024/02/23 03:45:31;;;;;;;3.75;0.70;;;;;;;;;;5084284;28;20045;-66
2024/02/23 03:47:59;;;;;;;0.52;0.50;;;;;;;;;;5080058;28;20424;-65
2024/02/23 03:50:25;;;;;;;4.15;0.52;;;;;;;;;;5087419;28;20031;-66
2024/02/23 03:52:51;;;;;;;4.22;0.60;;;;;;;;;;5082458;28;20051;-66
2024/02/23 03:55:17;;;;;;;0.70;0.60;;;;;;;;;;5084962;28;20589;-66
2024/02/23 03:57:43;;;;;;;1.50;0.57;;;;;;;;;;5082524;28;20028;-66
2024/02/23 04:00:10;;;;;;;2.05;0.50;;;;;;;;;;5081290;28;20547;-65
2024/02/23 04:02:41;;;;;;;1.35;0.52;;;;;;;;;;5085223;28;20051;-65
2024/02/23 04:05:07;;;;;;;0.88;0.47;;;;;;;;;;5081544;28;20032;-65
2024/02/23 04:07:33;;;;;;;1.10;0.60;;;;;;;;;;5088622;28;20036;-66
2024/02/23 04:09:59;;;;;;;2.10;0.70;;;;;;;;;;5083507;28;20046;-65
2024/02/23 04:12:26;;;;;;;2.28;0.40;;;;;;;;;;5087256;28;20051;-65
2024/02/23 04:14:52;;;;;;;0.82;0.70;;;;;;;;;;5087126;28;20059;-65
2024/02/23 04:17:18;;;;;;;0.93;0.80;;;;;;;;;;5085640;28;20115;-66
2024/02/23 04:19:44;;;;;;;2.90;0.63;;;;;;;;;;5087238;28;20043;-65
2024/02/23 04:22:11;;;;;;;1.95;0.70;;;;;;;;;;5091005;28;20028;-65
2024/02/23 04:24:40;;;;;;;2.15;0.50;;;;;;;;;;5097182;28;20040;-66
2024/02/23 04:27:07;;;;;;;;;;;;;;;;;;5093166;28;20031;-65
2024/02/23 04:29:34;;;;;;;1.15;0.50;;;;;;;;;;5089458;28;19912;-65
2024/02/23 04:32:01;;;;;;;2.63;0.50;;;;;;;;;;5090169;28;20091;-66
2024/02/23 04:34:27;;;;;;;2.83;0.70;;;;;;;;;;5079011;28;20504;-65
2024/02/23 04:36:54;;;;;;;0.70;0.70;;;;;;;;;;5090948;28;20401;-65
2024/02/23 04:39:21;;;;;;;0.90;0.50;;;;;;;;;;5094186;28;20515;-65
2024/02/23 04:41:47;;;;;;;1.73;0.77;;;;;;;;;;5088588;28;20048;-65
2024/02/23 04:44:13;;;;;;;1.42;0.50;;;;;;;;;;5088317;28;20044;-65
2024/02/23 04:46:39;;;;;;;1.83;0.50;;;;;;;;;;5085519;28;20039;-65
2024/02/23 04:49:05;;;;;;;1.48;0.50;;;;;;;;;;5090498;28;20385;-65
2024/02/23 04:51:31;;;;;;;2.35;0.70;;;;;;;;;;5092645;28;20412;-64
2024/02/23 04:53:57;;;;;;;0.85;0.75;;;;;;;;;;5090361;28;20055;-64
2024/02/23 04:56:23;;;;;;;1.42;0.63;;;;;;;;;;5085313;28;20067;-65
2024/02/23 04:58:51;;;;;;;2.78;0.80;;;;;;;;;;5088337;28;20047;-65
2024/02/23 05:01:17;;;;;;;5.40;1.05;;;;;;;;;;5080864;28;20043;-65
2024/02/23 05:03:43;;;;;;;1.45;0.50;;;;;;;;;;5090348;28;20044;-65
2024/02/23 05:06:09;;;;;;;2.33;1.40;;;;;;;;;;5080252;28;20048;-65
2024/02/23 05:08:35;;;;;;;5.45;1.02;;;;;;;;;;5091501;28;20522;-65
2024/02/23 05:11:01;;;;;;;1.65;0.68;;;;;;;;;;5087651;28;20055;-65
2024/02/23 05:13:27;;;;;;;2.75;0.50;;;;;;;;;;5079155;28;20412;-65
2024/02/23 05:15:55;;;;;;;2.28;0.65;;;;;;;;;;5088901;28;20031;-65
2024/02/23 05:18:21;;;;;;;3.92;0.55;;;;;;;;;;5088846;28;20051;-65
2024/02/23 05:20:48;;;;;;;1.33;0.70;;;;;;;;;;5087044;28;20517;-65
2024/02/23 05:23:15;;;;;;;4.20;0.70;;;;;;;;;;5086469;28;22054;-66
2024/02/23 05:25:42;;;;;;;4.00;0.75;;;;;;;;;;5088819;28;20399;-66
2024/02/23 05:28:08;;;;;;;0.60;0.50;;;;;;;;;;5097250;28;20043;-65
2024/02/23 05:30:34;;;;;;;5.47;0.88;;;;;;;;;;5086945;28;20036;-65
2024/02/23 05:33:03;;;;;;;1.58;0.70;;;;;;;;;;5088125;28;20059;-65
2024/02/23 05:35:29;;;;;;;1.38;0.70;;;;;;;;;;5087734;28;20027;-65
2024/02/23 05:37:55;;;;;;;4.88;1.40;;;;;;;;;;5084260;28;20038;-65
2024/02/23 05:40:21;;;;;;;2.63;0.93;;;;;;;;;;5085988;28;20048;-65
2024/02/23 05:42:47;;;;;;;3.13;1.10;;;;;;;;;;5065952;28;20036;-65
2024/02/23 05:45:14;;;;;;;5.75;2.17;;;;;;;;;;5082161;28;20043;-64
2024/02/23 05:47:40;;;;;;;3.70;1.88;;;;;;;;;;5084714;28;20036;-64
2024/02/23 05:50:11;;;;;;;6.97;1.98;;;;;;;;;;5092892;28;20027;-64
2024/02/23 05:52:37;;;;;;;5.85;2.50;;;;;;;;;;5092122;28;20063;-65
2024/02/23 05:55:04;;;;;;;4.00;1.92;;;;;;;;;;5080992;28;20050;-65
2024/02/23 05:57:30;;;;;;;7.50;2.97;;;;;;;;;;5084817;28;20066;-65
2024/02/23 05:59:56;;;;;;;5.13;2.00;;;;;;;;;;5086240;28;20039;-66
2024/02/23 06:02:23;;;;;;;4.20;0.80;;;;;;;;;;5069325;28;20035;-66
2024/02/23 06:04:49;;;;;;;2.95;0.65;;;;;;;;;;5075723;28;20040;-65
2024/02/23 06:07:15;;;;;;;1.65;0.75;;;;;;;;;;5083223;28;20044;-60
2024/02/23 06:09:45;;;;;;;4.28;1.00;;;;;;;;;;5080462;28;20032;-60
2024/02/23 06:12:11;;;;;;;0.80;0.80;;;;;;;;;;5078557;28;20043;-60
2024/02/23 06:14:37;;;;;;;6.95;0.90;;;;;;;;;;5089523;28;20062;-61
2024/02/23 06:17:04;;;;;;;8.68;1.85;;;;;;;;;;5088540;28;20060;-60
2024/02/23 06:19:30;;;;;;;5.88;1.60;;;;;;;;;;5088453;28;20036;-60
2024/02/23 06:21:56;;;;;;;6.57;1.88;;;;;;;;;;5087979;28;20044;-59
2024/02/23 06:24:22;;;;;;;4.80;1.20;;;;;;;;;;5091089;28;20035;-60
2024/02/23 06:26:49;;;;;;;1.45;0.95;;;;;;;;;;5081652;28;20045;-59
2024/02/23 06:29:15;;;;;;;2.28;0.88;;;;;;;;;;5086488;28;20055;-59
2024/02/23 06:31:41;;;;;;;1.75;0.95;;;;;;;;;;5079857;28;20028;-61
2024/02/23 06:34:08;;;;;;;3.30;1.65;;;;;;;;;;5081727;28;20048;-61
2024/02/23 06:36:34;;;;;;;3.10;1.63;;;;;;;;;;5081574;28;20431;-60
2024/02/23 06:39:00;;;;;;;3.55;1.20;;;;;;;;;;5085895;28;20071;-61
2024/02/23 06:41:26;;;;;;;3.22;1.10;;;;;;;;;;5081220;28;20032;-60
2024/02/23 06:43:53;;;;;;;2.20;1.00;;;;;;;;;;5081989;28;20069;-60
2024/02/23 06:46:20;;;;;;;4.07;0.85;;;;;;;;;;5083834;28;20070;-61
2024/02/23 06:48:46;;;;;;;1.08;0.98;;;;;;;;;;5087802;28;20043;-61
2024/02/23 06:51:12;;;;;;;2.70;1.15;;;;;;;;;;5081213;28;20417;-61
2024/02/23 06:53:38;;;;;;;3.00;0.90;;;;;;;;;;5082407;28;20051;-61
2024/02/23 06:56:05;;;;;;;1.70;0.90;;;;;;;;;;5085974;28;20512;-60
2024/02/23 06:58:31;;;;;;;1.73;0.90;;;;;;;;;;5086884;28;20048;-60
2024/02/23 07:00:57;;;;;;;7.70;1.20;;;;;;;;;;5082249;28;20040;-60
2024/02/23 07:03:23;;;;;;;5.60;1.00;;;;;;;;;;5085355;28;20048;-61
2024/02/23 07:05:50;;;;;;;6.53;1.88;;;;;;;;;;5085788;28;20046;-60
2024/02/23 07:08:16;;;;;;;2.40;1.05;;;;;;;;;;5083657;28;20048;-61
2024/02/23 07:10:42;;;;;;;3.97;1.00;;;;;;;;;;5081936;28;20032;-60
2024/02/23 07:13:08;;;;;;;1.70;0.93;;;;;;;;;;5084804;28;20052;-61
2024/02/23 07:15:36;;;;;;;7.05;1.75;;;;;;;;;;5086485;28;20040;-60
2024/02/23 07:18:02;;;;;;;9.25;2.35;;;;;;;;;;5084765;28;20515;-60
2024/02/23 07:20:28;;;;;;;3.30;0.90;;;;;;;;;;5081383;28;20389;-59
2024/02/23 07:22:54;;;;;;;4.72;1.80;;;;;;;;;;5082555;28;20047;-61
2024/02/23 07:25:21;;;;;;;4.25;2.20;;;;;;;;;;5082101;28;20040;-60
2024/02/23 07:27:50;;;;;;;2.03;1.10;;;;;;;;;;5076763;28;20032;-60
2024/02/23 07:30:17;;;;;;;2.60;1.10;;;;;;;;;;5079654;28;20396;-60
2024/02/23 07:32:44;;;;;;;3.63;1.30;;;;;;;;;;5081242;28;20028;-60
2024/02/23 07:35:10;;;;;;;5.70;1.77;;;;;;;;;;5078121;28;20095;-59
2024/02/23 07:37:36;;;;;;;2.35;1.08;;;;;;;;;;5076815;28;20504;-59
2024/02/23 07:40:03;;;;;;;3.83;1.17;;;;;;;;;;5078192;28;20617;-60
2024/02/23 07:42:31;;;;;;;1.17;0.70;;;;;;;;;;5077538;28;20519;-59
2024/02/23 07:44:57;;;;;;;1.20;0.63;;;;;;;;;;5077922;28;20045;-60
2024/02/23 07:47:24;;;;;;;6.15;1.25;;;;;;;;;;5082488;28;20035;-60
2024/02/23 07:49:51;;;;;;;0.95;0.85;;;;;;;;;;5081716;28;20040;-60
2024/02/23 07:52:17;;;;;;;1.30;0.95;;;;;;;;;;5080908;28;20511;-60
2024/02/23 07:54:43;;;;;;;1.98;1.38;;;;;;;;;;5082127;28;20036;-59
2024/02/23 07:57:09;;;;;;;1.58;0.80;;;;;;;;;;5084457;28;20036;-60
2024/02/23 07:59:35;;;;;;;5.05;1.02;;;;;;;;;;5073676;28;20052;-61
2024/02/23 08:02:01;;;;;;;3.83;1.10;;;;;;;;;;5076796;28;20641;-61
2024/02/23 08:04:27;;;;;;;0.73;0.68;;;;;;;;;;5085987;28;20485;-60
2024/02/23 08:06:53;;;;;;;2.78;0.90;;;;;;;;;;5082307;28;20396;-60
2024/02/23 08:09:22;;;;;;;3.97;1.25;;;;;;;;;;5086474;28;20036;-61
2024/02/23 08:11:49;;;;;;;4.22;1.08;;;;;;;;;;5081263;28;20036;-60
2024/02/23 08:14:15;;;;;;;1.95;1.08;;;;;;;;;;5084085;28;20058;-61
2024/02/23 08:16:41;;;;;;;2.40;0.85;;;;;;;;;;5081492;28;20059;-60
2024/02/23 08:19:08;;;;;;;1.92;0.95;;;;;;;;;;5081013;28;20039;-60
2024/02/23 08:21:34;;;;;;;2.03;1.30;;;;;;;;;;5079901;28;20111;-60
2024/02/23 08:24:00;;;;;;;5.70;1.20;;;;;;;;;;5077482;28;20443;-61
2024/02/23 08:26:26;;;;;;;1.33;0.80;;;;;;;;;;5084544;28;20047;-60
2024/02/23 08:28:52;;;;;;;2.67;1.25;;;;;;;;;;5081006;28;20044;-61
2024/02/23 08:31:18;;;;;;;2.63;1.45;;;;;;;;;;5083036;28;20032;-61
2024/02/23 08:33:44;;;;;;;6.90;2.80;;;;;;;;;;5075749;28;20048;-60
2024/02/23 08:36:11;;;;;;;2.95;1.35;;;;;;;;;;5087208;22;20045;-65
2024/02/23 08:38:37;;;;;;;3.00;1.45;;;;;;;;;;5046788;28;20064;-65
2024/02/23 08:41:03;;;;;;;4.63;1.35;;;;;;;;;;5041444;28;20532;-65
2024/02/23 08:43:29;;;;;;;3.42;1.70;;;;;;;;;;5039541;28;20036;-65
2024/02/23 08:45:55;;;;;;;5.43;2.20;;;;;;;;;;5043037;28;20049;-65
2024/02/23 08:48:22;;;;;;;4.13;1.58;;;;;;;;;;5035924;28;20067;-65
2024/02/23 08:50:48;;;;;;;2.53;1.20;;;;;;;;;;5045660;28;20052;-65
2024/02/23 08:53:14;;;;;;;4.13;0.90;;;;;;;;;;5048251;28;20037;-65
2024/02/23 08:55:40;;;;;;;2.90;1.00;;;;;;;;;;5046815;28;20039;-65
2024/02/23 08:58:07;;;;;;;2.25;0.80;;;;;;;;;;5027887;28;20037;-66
2024/02/23 09:00:33;;;;;;;4.93;1.83;;;;;;;;;;5043980;28;20524;-65
2024/02/23 09:02:59;;;;;;;4.13;1.27;;;;;;;;;;5043358;28;20045;-65
2024/02/23 09:05:25;;;;;;;2.85;1.05;;;;;;;;;;5045526;28;21773;-66
2024/02/23 09:07:53;;;;;;;5.05;0.90;;;;;;;;;;5050559;28;20052;-66
2024/02/23 09:10:19;;;;;;;3.20;1.17;;;;;;;;;;5050434;28;20041;-65
2024/02/23 09:12:45;;;;;;;4.45;1.08;;;;;;;;;;5038662;28;20037;-66
2024/02/23 09:15:11;;;;;;;6.18;1.75;;;;;;;;;;5049075;28;20516;-66
2024/02/23 09:17:39;;;;;;;1.67;1.00;;;;;;;;;;5044043;28;20380;-66
2024/02/23 09:20:07;;;;;;;3.17;1.02;;;;;;;;;;5045075;28;20049;-66
2024/02/23 09:22:33;;;;;;;1.95;0.95;;;;;;;;;;5045530;28;20107;-66
2024/02/23 09:24:59;;;;;;;1.05;0.70;;;;;;;;;;5049495;28;20051;-66
2024/02/23 09:27:26;;;;;;;3.60;1.65;;;;;;;;;;5046998;28;20028;-66
2024/02/23 09:29:53;;;;;;;1.55;1.00;;;;;;;;;;5045319;28;20041;-65
2024/02/23 09:32:19;;;;;;;1.65;0.90;;;;;;;;;;5041962;28;20045;-66
2024/02/23 09:34:45;;;;;;;2.72;1.33;;;;;;;;;;5037689;28;20048;-66
2024/02/23 09:37:11;;;;;;;4.05;1.20;;;;;;;;;;5048839;28;20048;-66
2024/02/23 09:39:37;;;;;;;2.03;1.10;;;;;;;;;;5042013;28;20068;-65
2024/02/23 09:42:09;;;;;;;3.50;1.35;;;;;;;;;;5042951;28;20029;-66
2024/02/23 09:44:36;;;;;;;4.13;1.00;;;;;;;;;;5039110;28;20041;-66
2024/02/23 09:47:07;;;;;;;2.90;1.30;;;;;;;;;;5042614;28;20052;-65
2024/02/23 09:49:38;;;;;;;6.88;1.38;;;;;;;;;;5045609;28;20639;-65
2024/02/23 09:52:07;;;;;;;1.48;1.10;;;;;;;;;;5041375;28;20616;-64
2024/02/23 09:54:34;;;;;;;2.00;1.08;;;;;;;;;;5047784;28;20041;-65
2024/02/23 09:57:06;;;;;;;3.47;1.17;;;;;;;;;;5030390;28;20489;-65
2024/02/23 09:59:34;;;;;;;3.30;1.00;;;;;;;;;;5048769;28;20080;-65
2024/02/23 10:02:00;;;;;;;2.50;1.30;;;;;;;;;;5042893;28;20048;-65
2024/02/23 10:04:29;;;;;;;4.30;1.00;;;;;;;;;;5043747;28;20041;-66
2024/02/23 10:06:56;;;;;;;3.67;1.10;;;;;;;;;;5045392;28;20036;-66
2024/02/23 10:09:22;;;;;;;5.22;1.10;;;;;;;;;;5025508;28;20048;-66
2024/02/23 10:11:54;;;;;;;4.22;1.10;;;;;;;;;;5042753;28;20648;-66
2024/02/23 10:14:21;;;;;;;6.57;1.45;;;;;;;;;;5049985;28;20402;-65
2024/02/23 10:16:52;;;;;;;6.63;1.63;;;;;;;;;;5044347;28;20040;-66
2024/02/23 10:19:19;;;;;;;2.03;1.00;;;;;;;;;;5041228;28;20037;-66
2024/02/23 10:21:46;;;;;;;2.67;0.90;;;;;;;;;;5044001;28;20045;-66
2024/02/23 10:24:12;;;;;;;2.95;1.02;;;;;;;;;;5047129;28;20057;-65
2024/02/23 10:26:38;;;;;;;7.15;1.23;;;;;;;;;;5047810;28;20033;-65
2024/02/23 10:29:04;;;;;;;3.22;1.40;;;;;;;;;;5042620;28;20512;-65
2024/02/23 10:31:35;;;;;;;2.83;1.20;;;;;;;;;;5042691;28;20050;-65
2024/02/23 10:34:09;;;;;;;3.03;1.10;;;;;;;;;;5042236;28;20045;-66
2024/02/23 10:36:37;;;;;;;1.50;0.98;;;;;;;;;;5052040;28;20036;-64
2024/02/23 10:39:04;;;;;;;5.72;1.10;;;;;;;;;;5054591;28;20040;-65
2024/02/23 10:41:34;;;;;;;3.00;0.98;;;;;;;;;;5063254;28;20044;-65
2024/02/23 10:44:03;;;;;;;1.70;0.90;;;;;;;;;;5042179;28;20052;-66
2024/02/23 10:46:31;;;;;;;2.78;0.90;;;;;;;;;;5053578;28;20053;-65
2024/02/23 10:49:01;;;;;;;2.78;1.00;;;;;;;;;;5059504;28;20041;-65
2024/02/23 10:51:28;;;;;;;3.22;1.20;;;;;;;;;;5060154;28;20033;-65
2024/02/23 10:53:55;;;;;;;2.88;0.90;;;;;;;;;;5060388;28;20052;-66
2024/02/23 10:56:22;;;;;;;4.30;1.00;;;;;;;;;;5062815;28;20055;-65
2024/02/23 10:58:48;;;;;;;3.90;1.15;;;;;;;;;;5055131;28;20037;-66
2024/02/23 11:01:18;;;;;;;7.10;0.80;;;;;;;;;;5060178;28;20040;-65
2024/02/23 11:03:49;;;;;;;4.03;0.95;;;;;;;;;;5060090;28;20103;-65
2024/02/23 11:06:20;;;;;;;2.70;1.52;;;;;;;;;;5059896;28;20044;-65
2024/02/23 11:08:51;;;;;;;3.50;1.02;;;;;;;;;;5061317;28;20412;-65
2024/02/23 11:11:20;;;;;;;1.63;0.90;;;;;;;;;;5065170;28;20060;-65
2024/02/23 11:13:46;;;;;;;8.38;2.00;;;;;;;;;;5062913;28;20059;-66
2024/02/23 11:16:23;;;;;;;3.25;0.90;;;;;;;;;;5061768;28;20044;-65
2024/02/23 11:18:49;;;;;;;6.78;0.93;;;;;;;;;;5060105;28;20051;-65
2024/02/23 11:21:15;;;;;;;4.47;1.13;;;;;;;;;;5061789;28;20378;-65
2024/02/23 11:23:42;;;;;;;3.85;1.10;;;;;;;;;;5063091;28;20033;-65
2024/02/23 11:26:12;;;;;;;12.63;1.30;;;;;;;;;;5057497;28;20047;-65
2024/02/23 11:28:58;;;;;;;1.20;0.70;;;;;;;;;;5055923;28;20044;-64
2024/02/23 11:31:25;;;;;;;4.80;1.00;;;;;;;;;;5053229;28;20036;-65
2024/02/23 11:33:55;;;;;;;5.07;1.40;;;;;;;;;;5058837;28;20059;-66
2024/02/23 11:36:42;;;;;;;2.60;0.85;;;;;;;;;;5055740;28;20032;-65
2024/02/23 11:39:12;;;;;;;4.78;1.23;;;;;;;;;;5065822;28;20520;-66
2024/02/23 11:41:39;;;;;;;6.55;1.42;;;;;;;;;;5059478;28;20045;-65
2024/02/23 11:44:07;;;;;;;4.75;2.40;;;;;;;;;;5060045;28;20416;-66
2024/02/23 11:46:33;;;;;;;8.98;1.02;;;;;;;;;;5068834;28;20040;-65
2024/02/23 11:48:59;;;;;;;5.40;1.00;;;;;;;;;;5060125;28;20056;-65
2024/02/23 11:51:29;;;;;;;2.97;1.10;;;;;;;;;;5058515;28;20037;-66
2024/02/23 11:54:00;;;;;;;3.50;1.02;;;;;;;;;;5065944;28;20440;-65
2024/02/23 11:56:26;;;;;;;2.22;0.98;;;;;;;;;;5062461;28;20032;-65
2024/02/23 11:58:56;;;;;;;6.35;1.23;;;;;;;;;;5062222;28;20404;-66
2024/02/23 12:01:22;;;;;;;4.75;1.17;;;;;;;;;;5063127;28;20063;-66
2024/02/23 12:03:48;;;;;;;3.67;1.00;;;;;;;;;;5060261;28;20036;-66
2024/02/23 12:06:18;;;;;;;4.57;1.02;;;;;;;;;;5062216;28;20028;-66
2024/02/23 12:08:45;;;;;;;8.10;1.40;;;;;;;;;;5058978;28;20035;-67
2024/02/23 12:11:13;;;;;;;6.82;2.05;;;;;;;;;;5062631;28;20059;-65
2024/02/23 12:13:39;;;;;;;3.60;0.90;;;;;;;;;;5059983;28;20049;-65
2024/02/23 12:16:08;;;;;;;4.40;1.10;;;;;;;;;;5063394;28;20032;-65
2024/02/23 12:18:35;;;;;;;4.20;0.80;;;;;;;;;;5060434;28;20048;-66
2024/02/23 12:21:06;;;;;;;6.50;2.35;;;;;;;;;;5071081;28;20036;-66
2024/02/23 12:23:42;;;;;;;4.50;1.17;;;;;;;;;;5060351;28;20039;-65
2024/02/23 12:26:09;;;;;;;4.63;0.95;;;;;;;;;;5061587;28;20040;-65
2024/02/23 12:28:36;;;;;;;2.08;0.95;;;;;;;;;;5057830;28;20032;-68
2024/02/23 12:31:03;;;;;;;7.75;1.63;;;;;;;;;;5061326;28;20049;-67
2024/02/23 12:33:39;;;;;;;4.07;1.20;;;;;;;;;;5058626;28;20048;-66
2024/02/23 12:36:06;;;;;;;30.17;4.07;;;;;;;;;;5055183;28;20053;-66
2024/02/23 12:38:33;;;;;;;9.05;2.35;;;;;;;;;;5055346;28;20044;-66
2024/02/23 12:41:00;;;;;;;6.15;1.33;;;;;;;;;;5057367;28;20485;-66
2024/02/23 12:43:27;;;;;;;4.10;0.98;;;;;;;;;;5065704;28;20063;-66
2024/02/23 12:45:54;;;;;;;4.78;0.82;;;;;;;;;;5067013;28;20028;-66
2024/02/23 12:48:21;;;;;;;2.47;0.90;;;;;;;;;;5067146;28;20040;-66
2024/02/23 12:50:48;;;;;;;5.78;1.30;;;;;;;;;;5061147;28;20063;-66
2024/02/23 12:53:33;;;;;;;7.28;1.02;;;;;;;;;;5060648;28;20040;-66
2024/02/23 12:56:02;;;;;;;3.22;0.80;;;;;;;;;;5059566;28;20051;-66
2024/02/23 12:58:28;;;;;;;2.15;1.00;;;;;;;;;;5061280;28;20047;-67
2024/02/23 13:00:54;;;;;;;7.53;1.58;;;;;;;;;;5059779;28;20048;-66
2024/02/23 13:03:20;;;;;;;5.00;1.00;;;;;;;;;;5063954;28;20052;-65
2024/02/23 13:05:46;;;;;;;4.43;1.00;;;;;;;;;;5062557;28;20033;-65
2024/02/23 13:08:13;;;;;;;3.22;1.00;;;;;;;;;;5070752;28;20036;-65
2024/02/23 13:10:39;;;;;;;5.53;1.00;;;;;;;;;;5066822;28;20040;-66
2024/02/23 13:13:05;;;;;;;5.28;2.30;;;;;;;;;;5067497;28;20035;-67
2024/02/23 13:15:32;;;;;;;5.85;1.38;;;;;;;;;;5053988;28;20607;-66
2024/02/23 13:17:58;;;;;;;4.85;1.33;;;;;;;;;;5059163;28;20044;-68
2024/02/23 13:20:24;;;;;;;6.38;1.30;;;;;;;;;;5063715;28;20538;-65
2024/02/23 13:22:50;;;;;;;7.20;2.00;;;;;;;;;;5061714;28;20028;-66
2024/02/23 13:25:16;;;;;;;8.13;1.35;;;;;;;;;;5061457;28;20049;-67
2024/02/23 13:27:43;;;;;;;6.10;1.20;;;;;;;;;;5062153;28;20037;-66
2024/02/23 13:30:09;;;;;;;5.60;1.20;;;;;;;;;;5043413;28;20032;-66
2024/02/23 13:32:35;;;;;;;5.22;1.20;;;;;;;;;;5064280;28;20044;-65
2024/02/23 13:35:04;;;;;;;3.38;1.48;;;;;;;;;;5061751;28;20397;-65
2024/02/23 13:37:30;;;;;;;5.60;1.50;;;;;;;;;;5057304;28;20045;-67
2024/02/23 13:39:56;;;;;;;3.03;0.88;;;;;;;;;;5062646;28;20033;-66
2024/02/23 13:42:22;;;;;;;3.20;1.40;;;;;;;;;;5063601;28;20048;-66
2024/02/23 13:44:48;;;;;;;3.85;0.90;;;;;;;;;;5063409;28;20402;-65
2024/02/23 13:47:15;;;;;;;4.45;1.80;;;;;;;;;;5067174;28;20508;-67
2024/02/23 13:49:41;;;;;;;5.72;0.90;;;;;;;;;;5065253;28;20029;-66
2024/02/23 13:52:07;;;;;;;8.55;1.13;;;;;;;;;;5062905;28;20029;-65
2024/02/23 13:54:33;;;;;;;5.72;1.08;;;;;;;;;;5065272;28;20028;-67
2024/02/23 13:57:02;;;;;;;2.88;1.02;;;;;;;;;;5066303;28;20036;-66
2024/02/23 13:59:28;;;;;;;4.43;1.55;;;;;;;;;;5067220;28;20036;-65
2024/02/23 14:01:54;;;;;;;4.25;1.08;;;;;;;;;;5065164;28;20039;-67
2024/02/23 14:04:20;;;;;;;2.53;1.00;;;;;;;;;;5048141;28;20056;-65
2024/02/23 14:06:47;;;;;;;6.88;1.70;;;;;;;;;;5067808;28;20417;-65
2024/02/23 14:09:13;;;;;;;3.67;1.00;;;;;;;;;;5067436;28;20036;-65
2024/02/23 14:11:40;;;;;;;4.97;1.27;;;;;;;;;;5061747;28;20045;-66
2024/02/23 14:14:07;;;;;;;3.08;1.10;;;;;;;;;;5062454;28;20029;-65
2024/02/23 14:16:34;;;;;;;4.57;1.20;;;;;;;;;;5059531;28;20031;-66
2024/02/23 14:19:00;;;;;;;8.95;1.73;;;;;;;;;;5066145;28;20055;-67
2024/02/23 14:21:27;;;;;;;4.80;0.98;;;;;;;;;;5064824;28;20033;-66
2024/02/23 14:23:53;;;;;;;7.68;1.33;;;;;;;;;;5056395;28;20048;-67
2024/02/23 14:26:19;;;;;;;6.07;1.02;;;;;;;;;;5066144;28;20099;-65
2024/02/23 14:28:45;;;;;;;4.57;1.10;;;;;;;;;;5060404;28;20037;-67
2024/02/23 14:31:11;;;;;;;5.03;1.50;;;;;;;;;;5060984;28;20052;-66
2024/02/23 14:33:37;;;;;;;4.57;1.25;;;;;;;;;;5059510;28;20052;-66
2024/02/23 14:36:04;;;;;;;5.43;1.10;;;;;;;;;;5056099;28;20040;-65
2024/02/23 14:38:30;;;;;;;4.88;1.80;;;;;;;;;;5059889;28;20529;-65
2024/02/23 14:40:56;;;;;;;5.35;1.10;;;;;;;;;;5065404;28;20048;-66